sensor_id;sensor_type;location;lat;lon;timestamp;temperature;humidity
75387;DHT22;63966;47.914;22.266;2023-05-07T00:01:48;14.83;86.28
75387;DHT22;63966;47.914;22.266;2023-05-07T00:04:52;14.81;86.34
75387;DHT22;63966;47.914;22.266;2023-05-07T00:07:56;14.84;86.50
75387;DHT22;63966;47.914;22.266;2023-05-07T00:11:01;14.81;86.53
75387;DHT22;63966;47.914;22.266;2023-05-07T00:14:05;14.88;86.85
75387;DHT22;63966;47.914;22.266;2023-05-07T00:17:08;14.84;87.06
75387;DHT22;63966;47.914;22.266;2023-05-07T00:20:12;14.83;87.28
75387;DHT22;63966;47.914;22.266;2023-05-07T00:23:16;14.81;87.63
75387;DHT22;63966;47.914;22.266;2023-05-07T00:26:19;14.74;87.89
75387;DHT22;63966;47.914;22.266;2023-05-07T00:29:25;14.74;88.00
75387;DHT22;63966;47.914;22.266;2023-05-07T00:32:29;14.71;88.26
75387;DHT22;63966;47.914;22.266;2023-05-07T00:35:32;14.80;87.82
75387;DHT22;63966;47.914;22.266;2023-05-07T00:38:36;14.81;87.78
75387;DHT22;63966;47.914;22.266;2023-05-07T00:41:39;14.80;87.97
75387;DHT22;63966;47.914;22.266;2023-05-07T00:44:43;14.87;87.55
75387;DHT22;63966;47.914;22.266;2023-05-07T00:47:46;14.94;87.54
75387;DHT22;63966;47.914;22.266;2023-05-07T00:50:50;14.94;87.31
75387;DHT22;63966;47.914;22.266;2023-05-07T00:53:54;14.96;87.65
75387;DHT22;63966;47.914;22.266;2023-05-07T00:56:57;15.01;87.37
75387;DHT22;63966;47.914;22.266;2023-05-07T01:00:02;15.02;87.12
75387;DHT22;63966;47.914;22.266;2023-05-07T01:03:07;15.08;86.94
75387;DHT22;63966;47.914;22.266;2023-05-07T01:06:11;15.16;86.77
75387;DHT22;63966;47.914;22.266;2023-05-07T01:09:16;15.15;86.89
75387;DHT22;63966;47.914;22.266;2023-05-07T01:12:21;15.13;86.78
75387;DHT22;63966;47.914;22.266;2023-05-07T01:15:25;15.12;86.91
75387;DHT22;63966;47.914;22.266;2023-05-07T01:18:29;15.11;87.20
75387;DHT22;63966;47.914;22.266;2023-05-07T01:21:38;15.12;86.96
75387;DHT22;63966;47.914;22.266;2023-05-07T01:24:43;15.15;86.68
75387;DHT22;63966;47.914;22.266;2023-05-07T01:27:48;15.16;86.72
75387;DHT22;63966;47.914;22.266;2023-05-07T01:30:54;15.13;87.07
75387;DHT22;63966;47.914;22.266;2023-05-07T01:34:01;15.19;86.70
75387;DHT22;63966;47.914;22.266;2023-05-07T01:37:06;15.16;86.71
75387;DHT22;63966;47.914;22.266;2023-05-07T01:40:10;15.15;86.72
75387;DHT22;63966;47.914;22.266;2023-05-07T01:43:14;15.16;86.40
75387;DHT22;63966;47.914;22.266;2023-05-07T01:46:19;15.16;86.71
75387;DHT22;63966;47.914;22.266;2023-05-07T01:49:23;15.12;86.75
75387;DHT22;63966;47.914;22.266;2023-05-07T01:52:28;15.11;86.49
75387;DHT22;63966;47.914;22.266;2023-05-07T01:55:31;15.06;86.21
75387;DHT22;63966;47.914;22.266;2023-05-07T01:58:35;14.96;86.41
75387;DHT22;63966;47.914;22.266;2023-05-07T02:01:38;14.88;87.14
75387;DHT22;63966;47.914;22.266;2023-05-07T02:04:42;14.81;87.56
75387;DHT22;63966;47.914;22.266;2023-05-07T02:07:47;14.67;87.82
75387;DHT22;63966;47.914;22.266;2023-05-07T02:10:52;14.60;88.30
75387;DHT22;63966;47.914;22.266;2023-05-07T02:13:57;14.54;88.54
75387;DHT22;63966;47.914;22.266;2023-05-07T02:17:00;14.51;88.91
75387;DHT22;63966;47.914;22.266;2023-05-07T02:20:04;14.48;89.13
75387;DHT22;63966;47.914;22.266;2023-05-07T02:23:08;14.46;89.56
75387;DHT22;63966;47.914;22.266;2023-05-07T02:26:11;14.40;89.81
75387;DHT22;63966;47.914;22.266;2023-05-07T02:29:15;14.34;89.86
75387;DHT22;63966;47.914;22.266;2023-05-07T02:32:19;14.30;90.13
75387;DHT22;63966;47.914;22.266;2023-05-07T02:35:23;14.22;90.42
75387;DHT22;63966;47.914;22.266;2023-05-07T02:38:27;14.13;90.85
75387;DHT22;63966;47.914;22.266;2023-05-07T02:41:31;14.04;90.87
75387;DHT22;63966;47.914;22.266;2023-05-07T02:44:35;13.95;91.07
75387;DHT22;63966;47.914;22.266;2023-05-07T02:47:38;13.86;91.28
75387;DHT22;63966;47.914;22.266;2023-05-07T02:50:42;13.81;91.89
75387;DHT22;63966;47.914;22.266;2023-05-07T02:53:48;13.75;91.89
75387;DHT22;63966;47.914;22.266;2023-05-07T02:56:51;13.74;91.85
75387;DHT22;63966;47.914;22.266;2023-05-07T02:59:55;13.79;91.87
75387;DHT22;63966;47.914;22.266;2023-05-07T03:02:59;13.82;91.80
75387;DHT22;63966;47.914;22.266;2023-05-07T03:06:03;13.85;91.65
75387;DHT22;63966;47.914;22.266;2023-05-07T03:09:06;13.81;91.70
75387;DHT22;63966;47.914;22.266;2023-05-07T03:12:10;13.75;91.87
75387;DHT22;63966;47.914;22.266;2023-05-07T03:15:14;13.72;91.94
75387;DHT22;63966;47.914;22.266;2023-05-07T03:18:18;13.65;91.91
75387;DHT22;63966;47.914;22.266;2023-05-07T03:21:22;13.65;91.87
75387;DHT22;63966;47.914;22.266;2023-05-07T03:24:26;13.65;92.10
75387;DHT22;63966;47.914;22.266;2023-05-07T03:27:29;13.74;92.15
75387;DHT22;63966;47.914;22.266;2023-05-07T03:30:33;13.82;92.17
75387;DHT22;63966;47.914;22.266;2023-05-07T03:33:49;13.94;92.01
75387;DHT22;63966;47.914;22.266;2023-05-07T03:36:53;14.04;91.55
75387;DHT22;63966;47.914;22.266;2023-05-07T03:39:58;14.08;91.20
75387;DHT22;63966;47.914;22.266;2023-05-07T03:43:02;14.10;91.30
75387;DHT22;63966;47.914;22.266;2023-05-07T03:46:08;14.09;91.40
75387;DHT22;63966;47.914;22.266;2023-05-07T03:49:12;14.16;91.46
75387;DHT22;63966;47.914;22.266;2023-05-07T03:52:15;14.20;91.42
75387;DHT22;63966;47.914;22.266;2023-05-07T03:55:19;14.26;91.47
75387;DHT22;63966;47.914;22.266;2023-05-07T03:58:28;14.32;91.15
75387;DHT22;63966;47.914;22.266;2023-05-07T04:01:35;14.41;91.11
75387;DHT22;63966;47.914;22.266;2023-05-07T04:04:39;14.41;90.88
75387;DHT22;63966;47.914;22.266;2023-05-07T04:07:43;14.48;90.78
75387;DHT22;63966;47.914;22.266;2023-05-07T04:10:58;14.50;90.57
75387;DHT22;63966;47.914;22.266;2023-05-07T04:14:06;14.53;90.52
75387;DHT22;63966;47.914;22.266;2023-05-07T04:17:10;14.54;90.57
75387;DHT22;63966;47.914;22.266;2023-05-07T04:20:18;14.60;90.32
75387;DHT22;63966;47.914;22.266;2023-05-07T04:23:26;14.67;89.96
75387;DHT22;63966;47.914;22.266;2023-05-07T04:26:31;14.74;89.88
75387;DHT22;63966;47.914;22.266;2023-05-07T04:29:36;14.85;89.55
75387;DHT22;63966;47.914;22.266;2023-05-07T04:32:40;15.02;89.10
75387;DHT22;63966;47.914;22.266;2023-05-07T04:35:43;15.26;88.42
75387;DHT22;63966;47.914;22.266;2023-05-07T04:38:47;15.44;87.91
75387;DHT22;63966;47.914;22.266;2023-05-07T04:41:54;15.67;87.33
75387;DHT22;63966;47.914;22.266;2023-05-07T04:44:58;15.80;86.17
75387;DHT22;63966;47.914;22.266;2023-05-07T04:48:02;15.90;86.02
75387;DHT22;63966;47.914;22.266;2023-05-07T04:51:07;16.02;85.35
75387;DHT22;63966;47.914;22.266;2023-05-07T04:54:11;16.28;84.06
75387;DHT22;63966;47.914;22.266;2023-05-07T04:57:15;16.42;84.20
75387;DHT22;63966;47.914;22.266;2023-05-07T05:00:20;16.52;83.48
75387;DHT22;63966;47.914;22.266;2023-05-07T05:03:26;16.46;83.30
75387;DHT22;63966;47.914;22.266;2023-05-07T05:06:30;16.46;83.07
75387;DHT22;63966;47.914;22.266;2023-05-07T05:09:34;16.51;83.17
75387;DHT22;63966;47.914;22.266;2023-05-07T05:12:38;16.53;82.74
75387;DHT22;63966;47.914;22.266;2023-05-07T05:15:42;16.66;82.16
75387;DHT22;63966;47.914;22.266;2023-05-07T05:18:45;16.81;80.92
75387;DHT22;63966;47.914;22.266;2023-05-07T05:21:52;17.49;78.54
75387;DHT22;63966;47.914;22.266;2023-05-07T05:24:56;19.54;72.47
75387;DHT22;63966;47.914;22.266;2023-05-07T05:27:59;21.38;65.66
75387;DHT22;63966;47.914;22.266;2023-05-07T05:31:04;22.00;62.23
75387;DHT22;63966;47.914;22.266;2023-05-07T05:34:11;22.15;60.71
75387;DHT22;63966;47.914;22.266;2023-05-07T05:37:16;22.22;61.65
75387;DHT22;63966;47.914;22.266;2023-05-07T05:40:20;22.99;57.60
75387;DHT22;63966;47.914;22.266;2023-05-07T05:43:24;22.65;59.89
75387;DHT22;63966;47.914;22.266;2023-05-07T05:46:28;21.90;61.36
75387;DHT22;63966;47.914;22.266;2023-05-07T05:49:32;21.91;61.73
75387;DHT22;63966;47.914;22.266;2023-05-07T05:52:35;21.73;65.10
75387;DHT22;63966;47.914;22.266;2023-05-07T05:55:40;21.57;63.88
75387;DHT22;63966;47.914;22.266;2023-05-07T05:58:44;20.63;67.29
75387;DHT22;63966;47.914;22.266;2023-05-07T06:01:48;21.70;65.50
75387;DHT22;63966;47.914;22.266;2023-05-07T06:04:52;22.20;62.15
75387;DHT22;63966;47.914;22.266;2023-05-07T06:07:58;21.70;63.95
75387;DHT22;63966;47.914;22.266;2023-05-07T06:11:05;22.47;62.26
75387;DHT22;63966;47.914;22.266;2023-05-07T06:14:12;21.90;63.03
75387;DHT22;63966;47.914;22.266;2023-05-07T06:17:16;21.67;64.82
75387;DHT22;63966;47.914;22.266;2023-05-07T06:20:24;22.53;62.28
75387;DHT22;63966;47.914;22.266;2023-05-07T06:23:28;21.67;64.83
75387;DHT22;63966;47.914;22.266;2023-05-07T06:26:32;20.47;68.11
75387;DHT22;63966;47.914;22.266;2023-05-07T06:29:35;19.79;70.78
75387;DHT22;63966;47.914;22.266;2023-05-07T06:32:45;19.30;72.49
75387;DHT22;63966;47.914;22.266;2023-05-07T06:35:50;18.95;74.15
75387;DHT22;63966;47.914;22.266;2023-05-07T06:38:54;18.13;76.74
75387;DHT22;63966;47.914;22.266;2023-05-07T06:41:58;17.80;77.58
75387;DHT22;63966;47.914;22.266;2023-05-07T06:45:08;17.55;78.83
75387;DHT22;63966;47.914;22.266;2023-05-07T06:48:11;17.34;80.22
75387;DHT22;63966;47.914;22.266;2023-05-07T06:51:31;17.41;79.70
75387;DHT22;63966;47.914;22.266;2023-05-07T06:54:38;17.30;79.81
75387;DHT22;63966;47.914;22.266;2023-05-07T06:57:42;17.27;79.87
75387;DHT22;63966;47.914;22.266;2023-05-07T07:00:46;17.35;79.84
75387;DHT22;63966;47.914;22.266;2023-05-07T07:03:49;17.52;79.93
75387;DHT22;63966;47.914;22.266;2023-05-07T07:06:56;17.73;78.22
75387;DHT22;63966;47.914;22.266;2023-05-07T07:10:00;18.34;75.75
75387;DHT22;63966;47.914;22.266;2023-05-07T07:13:04;18.61;74.04
75387;DHT22;63966;47.914;22.266;2023-05-07T07:16:08;19.46;73.08
75387;DHT22;63966;47.914;22.266;2023-05-07T07:19:12;20.43;69.01
75387;DHT22;63966;47.914;22.266;2023-05-07T07:22:16;21.07;67.03
75387;DHT22;63966;47.914;22.266;2023-05-07T07:25:19;20.84;66.90
75387;DHT22;63966;47.914;22.266;2023-05-07T07:28:24;20.39;69.41
75387;DHT22;63966;47.914;22.266;2023-05-07T07:31:28;19.84;69.03
75387;DHT22;63966;47.914;22.266;2023-05-07T07:34:33;19.09;70.32
75387;DHT22;63966;47.914;22.266;2023-05-07T07:37:37;18.61;71.68
75387;DHT22;63966;47.914;22.266;2023-05-07T07:40:41;18.44;73.05
75387;DHT22;63966;47.914;22.266;2023-05-07T07:43:47;18.51;72.78
75387;DHT22;63966;47.914;22.266;2023-05-07T07:46:54;18.30;72.71
75387;DHT22;63966;47.914;22.266;2023-05-07T07:49:59;18.11;74.25
75387;DHT22;63966;47.914;22.266;2023-05-07T07:53:03;18.07;73.76
75387;DHT22;63966;47.914;22.266;2023-05-07T07:56:07;18.03;75.08
75387;DHT22;63966;47.914;22.266;2023-05-07T07:59:10;18.41;74.35
75387;DHT22;63966;47.914;22.266;2023-05-07T08:02:16;19.31;72.25
75387;DHT22;63966;47.914;22.266;2023-05-07T08:05:20;19.46;70.03
75387;DHT22;63966;47.914;22.266;2023-05-07T08:08:25;19.00;71.84
75387;DHT22;63966;47.914;22.266;2023-05-07T08:11:30;18.45;72.67
75387;DHT22;63966;47.914;22.266;2023-05-07T08:14:35;18.30;73.50
75387;DHT22;63966;47.914;22.266;2023-05-07T08:17:41;18.34;73.30
75387;DHT22;63966;47.914;22.266;2023-05-07T08:20:45;18.54;74.30
75387;DHT22;63966;47.914;22.266;2023-05-07T08:23:53;18.55;73.67
75387;DHT22;63966;47.914;22.266;2023-05-07T08:26:57;18.31;72.95
75387;DHT22;63966;47.914;22.266;2023-05-07T08:30:01;17.87;74.31
75387;DHT22;63966;47.914;22.266;2023-05-07T08:33:08;18.10;74.32
75387;DHT22;63966;47.914;22.266;2023-05-07T08:36:11;18.69;72.31
75387;DHT22;63966;47.914;22.266;2023-05-07T08:39:16;19.53;71.22
75387;DHT22;63966;47.914;22.266;2023-05-07T08:42:25;19.92;68.29
75387;DHT22;63966;47.914;22.266;2023-05-07T08:45:31;20.41;67.01
75387;DHT22;63966;47.914;22.266;2023-05-07T08:48:36;20.80;66.65
75387;DHT22;63966;47.914;22.266;2023-05-07T08:51:45;21.50;64.18
75387;DHT22;63966;47.914;22.266;2023-05-07T08:54:50;21.96;60.54
75387;DHT22;63966;47.914;22.266;2023-05-07T08:57:54;22.38;59.10
75387;DHT22;63966;47.914;22.266;2023-05-07T09:00:58;22.80;60.40
75387;DHT22;63966;47.914;22.266;2023-05-07T09:04:02;23.04;59.53
75387;DHT22;63966;47.914;22.266;2023-05-07T09:07:06;23.54;56.93
75387;DHT22;63966;47.914;22.266;2023-05-07T09:10:15;23.07;56.73
75387;DHT22;63966;47.914;22.266;2023-05-07T09:13:21;23.06;57.49
75387;DHT22;63966;47.914;22.266;2023-05-07T09:16:26;22.63;60.18
75387;DHT22;63966;47.914;22.266;2023-05-07T09:19:31;22.28;60.95
75387;DHT22;63966;47.914;22.266;2023-05-07T09:22:38;22.22;60.02
75387;DHT22;63966;47.914;22.266;2023-05-07T09:25:46;22.17;61.26
75387;DHT22;63966;47.914;22.266;2023-05-07T09:28:56;22.11;58.74
75387;DHT22;63966;47.914;22.266;2023-05-07T09:32:07;22.30;58.51
75387;DHT22;63966;47.914;22.266;2023-05-07T09:35:18;22.34;59.59
75387;DHT22;63966;47.914;22.266;2023-05-07T09:38:27;22.69;58.06
75387;DHT22;63966;47.914;22.266;2023-05-07T09:41:44;23.14;58.22
75387;DHT22;63966;47.914;22.266;2023-05-07T09:44:58;22.66;57.67
75387;DHT22;63966;47.914;22.266;2023-05-07T09:48:06;21.89;57.99
75387;DHT22;63966;47.914;22.266;2023-05-07T09:51:34;21.90;59.19
75387;DHT22;63966;47.914;22.266;2023-05-07T09:54:41;21.42;61.03
75387;DHT22;63966;47.914;22.266;2023-05-07T09:57:51;21.73;58.76
75387;DHT22;63966;47.914;22.266;2023-05-07T10:00:56;21.80;61.88
75387;DHT22;63966;47.914;22.266;2023-05-07T10:04:02;22.18;59.27
75387;DHT22;63966;47.914;22.266;2023-05-07T10:07:09;22.15;57.73
75387;DHT22;63966;47.914;22.266;2023-05-07T10:10:14;22.65;58.20
75387;DHT22;63966;47.914;22.266;2023-05-07T10:13:21;22.58;55.61
75387;DHT22;63966;47.914;22.266;2023-05-07T10:16:32;22.21;56.41
75387;DHT22;63966;47.914;22.266;2023-05-07T10:19:45;22.47;56.44
75387;DHT22;63966;47.914;22.266;2023-05-07T10:22:50;22.59;58.26
75387;DHT22;63966;47.914;22.266;2023-05-07T10:26:06;22.30;56.37
75387;DHT22;63966;47.914;22.266;2023-05-07T10:32:49;22.38;56.32
75387;DHT22;63966;47.914;22.266;2023-05-07T10:36:02;22.44;55.15
75387;DHT22;63966;47.914;22.266;2023-05-07T10:39:09;22.70;57.56
75387;DHT22;63966;47.914;22.266;2023-05-07T10:42:15;22.79;57.63
75387;DHT22;63966;47.914;22.266;2023-05-07T10:45:24;22.04;58.28
75387;DHT22;63966;47.914;22.266;2023-05-07T10:48:30;22.12;58.91
75387;DHT22;63966;47.914;22.266;2023-05-07T10:51:39;22.00;57.90
75387;DHT22;63966;47.914;22.266;2023-05-07T10:58:28;22.20;55.60
75387;DHT22;63966;47.914;22.266;2023-05-07T11:01:52;22.24;59.68
75387;DHT22;63966;47.914;22.266;2023-05-07T11:05:23;22.56;55.15
75387;DHT22;63966;47.914;22.266;2023-05-07T11:08:58;22.62;54.60
75387;DHT22;63966;47.914;22.266;2023-05-07T11:15:48;22.70;55.35
75387;DHT22;63966;47.914;22.266;2023-05-07T11:18:58;22.20;55.31
75387;DHT22;63966;47.914;22.266;2023-05-07T11:25:50;22.18;55.33
75387;DHT22;63966;47.914;22.266;2023-05-07T11:28:58;22.27;53.52
75387;DHT22;63966;47.914;22.266;2023-05-07T11:32:04;22.37;55.31
75387;DHT22;63966;47.914;22.266;2023-05-07T11:35:16;21.60;54.11
75387;DHT22;63966;47.914;22.266;2023-05-07T11:38:23;21.86;53.72
75387;DHT22;63966;47.914;22.266;2023-05-07T11:41:35;21.97;52.08
75387;DHT22;63966;47.914;22.266;2023-05-07T11:44:45;22.15;52.39
75387;DHT22;63966;47.914;22.266;2023-05-07T11:47:50;22.32;52.01
75387;DHT22;63966;47.914;22.266;2023-05-07T11:51:01;22.15;52.25
75387;DHT22;63966;47.914;22.266;2023-05-07T11:54:05;22.34;52.16
75387;DHT22;63966;47.914;22.266;2023-05-07T11:57:15;22.37;52.39
75387;DHT22;63966;47.914;22.266;2023-05-07T12:00:19;22.24;51.46
75387;DHT22;63966;47.914;22.266;2023-05-07T12:03:22;21.89;51.65
75387;DHT22;63966;47.914;22.266;2023-05-07T12:06:26;22.03;51.71
75387;DHT22;63966;47.914;22.266;2023-05-07T12:09:32;21.89;52.03
75387;DHT22;63966;47.914;22.266;2023-05-07T12:12:40;22.00;51.77
75387;DHT22;63966;47.914;22.266;2023-05-07T12:15:45;22.17;51.45
75387;DHT22;63966;47.914;22.266;2023-05-07T12:18:49;21.84;50.84
75387;DHT22;63966;47.914;22.266;2023-05-07T12:21:53;22.14;51.86
75387;DHT22;63966;47.914;22.266;2023-05-07T12:24:59;21.91;50.09
75387;DHT22;63966;47.914;22.266;2023-05-07T12:28:03;21.86;52.12
75387;DHT22;63966;47.914;22.266;2023-05-07T12:31:08;21.42;51.75
75387;DHT22;63966;47.914;22.266;2023-05-07T12:34:12;21.47;52.25
75387;DHT22;63966;47.914;22.266;2023-05-07T12:37:15;21.09;51.77
75387;DHT22;63966;47.914;22.266;2023-05-07T12:40:19;21.36;52.37
75387;DHT22;63966;47.914;22.266;2023-05-07T12:43:26;21.69;49.23
75387;DHT22;63966;47.914;22.266;2023-05-07T12:46:30;22.11;48.43
75387;DHT22;63966;47.914;22.266;2023-05-07T12:49:35;22.08;49.78
75387;DHT22;63966;47.914;22.266;2023-05-07T12:52:45;21.52;50.61
75387;DHT22;63966;47.914;22.266;2023-05-07T12:55:55;21.45;52.43
75387;DHT22;63966;47.914;22.266;2023-05-07T12:58:58;21.83;50.54
75387;DHT22;63966;47.914;22.266;2023-05-07T13:02:02;21.80;49.36
75387;DHT22;63966;47.914;22.266;2023-05-07T13:05:06;22.07;51.28
75387;DHT22;63966;47.914;22.266;2023-05-07T13:08:09;21.50;49.01
75387;DHT22;63966;47.914;22.266;2023-05-07T13:11:13;21.52;50.43
75387;DHT22;63966;47.914;22.266;2023-05-07T13:14:17;21.91;49.39
75387;DHT22;63966;47.914;22.266;2023-05-07T13:17:20;22.14;48.08
75387;DHT22;63966;47.914;22.266;2023-05-07T13:20:24;22.04;48.77
75387;DHT22;63966;47.914;22.266;2023-05-07T13:23:28;21.76;47.60
75387;DHT22;63966;47.914;22.266;2023-05-07T13:26:32;22.03;47.37
75387;DHT22;63966;47.914;22.266;2023-05-07T13:29:35;22.30;51.20
75387;DHT22;63966;47.914;22.266;2023-05-07T13:32:39;22.11;47.86
75387;DHT22;63966;47.914;22.266;2023-05-07T13:35:43;22.07;47.86
75387;DHT22;63966;47.914;22.266;2023-05-07T13:38:46;21.86;48.19
75387;DHT22;63966;47.914;22.266;2023-05-07T13:41:50;21.39;48.66
75387;DHT22;63966;47.914;22.266;2023-05-07T13:44:53;21.42;48.71
75387;DHT22;63966;47.914;22.266;2023-05-07T13:47:57;21.62;48.36
75387;DHT22;63966;47.914;22.266;2023-05-07T13:51:01;21.73;48.19
75387;DHT22;63966;47.914;22.266;2023-05-07T13:54:04;21.53;47.68
75387;DHT22;63966;47.914;22.266;2023-05-07T13:57:08;21.42;50.76
75387;DHT22;63966;47.914;22.266;2023-05-07T14:00:13;21.19;51.67
75387;DHT22;63966;47.914;22.266;2023-05-07T14:03:19;20.98;51.18
75387;DHT22;63966;47.914;22.266;2023-05-07T14:06:23;20.97;50.91
75387;DHT22;63966;47.914;22.266;2023-05-07T14:09:27;20.59;52.11
75387;DHT22;63966;47.914;22.266;2023-05-07T14:12:31;20.25;52.91
75387;DHT22;63966;47.914;22.266;2023-05-07T14:15:34;20.34;51.66
75387;DHT22;63966;47.914;22.266;2023-05-07T14:18:38;20.36;51.84
75387;DHT22;63966;47.914;22.266;2023-05-07T14:21:42;20.37;51.92
75387;DHT22;63966;47.914;22.266;2023-05-07T14:24:45;20.36;51.39
75387;DHT22;63966;47.914;22.266;2023-05-07T14:28:01;20.56;50.65
75387;DHT22;63966;47.914;22.266;2023-05-07T14:31:05;20.61;50.28
75387;DHT22;63966;47.914;22.266;2023-05-07T14:34:09;20.53;51.16
75387;DHT22;63966;47.914;22.266;2023-05-07T14:37:13;20.46;50.77
75387;DHT22;63966;47.914;22.266;2023-05-07T14:40:17;20.46;52.20
75387;DHT22;63966;47.914;22.266;2023-05-07T14:43:20;20.47;50.20
75387;DHT22;63966;47.914;22.266;2023-05-07T14:46:25;20.08;50.51
75387;DHT22;63966;47.914;22.266;2023-05-07T14:49:29;19.75;50.46
75387;DHT22;63966;47.914;22.266;2023-05-07T14:52:33;19.40;51.15
75387;DHT22;63966;47.914;22.266;2023-05-07T14:55:36;19.15;51.92
75387;DHT22;63966;47.914;22.266;2023-05-07T14:58:40;19.09;51.60
75387;DHT22;63966;47.914;22.266;2023-05-07T15:01:44;18.95;51.11
75387;DHT22;63966;47.914;22.266;2023-05-07T15:04:48;18.96;51.30
75387;DHT22;63966;47.914;22.266;2023-05-07T15:07:52;19.03;51.60
75387;DHT22;63966;47.914;22.266;2023-05-07T15:10:59;19.00;51.10
75387;DHT22;63966;47.914;22.266;2023-05-07T15:14:03;18.88;51.07
75387;DHT22;63966;47.914;22.266;2023-05-07T15:17:07;19.13;51.08
75387;DHT22;63966;47.914;22.266;2023-05-07T15:20:10;19.12;51.67
75387;DHT22;63966;47.914;22.266;2023-05-07T15:23:14;19.13;51.00
75387;DHT22;63966;47.914;22.266;2023-05-07T15:26:21;18.98;51.56
75387;DHT22;63966;47.914;22.266;2023-05-07T15:29:25;18.86;51.51
75387;DHT22;63966;47.914;22.266;2023-05-07T15:32:29;18.64;50.52
75387;DHT22;63966;47.914;22.266;2023-05-07T15:35:33;18.62;51.12
75387;DHT22;63966;47.914;22.266;2023-05-07T15:38:36;18.72;51.62
75387;DHT22;63966;47.914;22.266;2023-05-07T15:41:40;18.47;51.21
75387;DHT22;63966;47.914;22.266;2023-05-07T15:44:44;18.24;52.39
75387;DHT22;63966;47.914;22.266;2023-05-07T15:47:47;18.07;51.77
75387;DHT22;63966;47.914;22.266;2023-05-07T15:50:51;17.85;51.87
75387;DHT22;63966;47.914;22.266;2023-05-07T15:53:55;17.83;52.28
75387;DHT22;63966;47.914;22.266;2023-05-07T15:56:58;17.65;52.23
75387;DHT22;63966;47.914;22.266;2023-05-07T16:00:04;17.51;51.99
75387;DHT22;63966;47.914;22.266;2023-05-07T16:03:14;17.30;52.45
75387;DHT22;63966;47.914;22.266;2023-05-07T16:06:17;17.21;52.57
75387;DHT22;63966;47.914;22.266;2023-05-07T16:09:21;17.11;52.29
75387;DHT22;63966;47.914;22.266;2023-05-07T16:12:27;16.97;52.56
75387;DHT22;63966;47.914;22.266;2023-05-07T16:15:30;16.84;52.55
75387;DHT22;63966;47.914;22.266;2023-05-07T16:18:34;16.80;53.47
75387;DHT22;63966;47.914;22.266;2023-05-07T16:21:40;16.77;53.85
75387;DHT22;63966;47.914;22.266;2023-05-07T16:24:44;16.45;54.21
75387;DHT22;63966;47.914;22.266;2023-05-07T16:27:48;16.26;55.30
75387;DHT22;63966;47.914;22.266;2023-05-07T16:30:52;16.21;56.28
75387;DHT22;63966;47.914;22.266;2023-05-07T16:33:55;16.14;55.38
75387;DHT22;63966;47.914;22.266;2023-05-07T16:36:59;16.02;54.62
75387;DHT22;63966;47.914;22.266;2023-05-07T16:40:03;15.93;55.31
75387;DHT22;63966;47.914;22.266;2023-05-07T16:43:09;15.81;56.04
75387;DHT22;63966;47.914;22.266;2023-05-07T16:46:14;15.73;56.60
75387;DHT22;63966;47.914;22.266;2023-05-07T16:49:22;15.63;56.50
75387;DHT22;63966;47.914;22.266;2023-05-07T16:52:28;15.50;56.46
75387;DHT22;63966;47.914;22.266;2023-05-07T16:55:32;15.26;57.24
75387;DHT22;63966;47.914;22.266;2023-05-07T16:58:41;15.06;57.76
75387;DHT22;63966;47.914;22.266;2023-05-07T17:01:44;14.91;57.91
75387;DHT22;63966;47.914;22.266;2023-05-07T17:04:48;14.84;58.48
75387;DHT22;63966;47.914;22.266;2023-05-07T17:07:52;14.83;58.62
75387;DHT22;63966;47.914;22.266;2023-05-07T17:10:56;14.75;59.10
75387;DHT22;63966;47.914;22.266;2023-05-07T17:13:59;14.64;59.66
75387;DHT22;63966;47.914;22.266;2023-05-07T17:17:05;14.25;60.34
75387;DHT22;63966;47.914;22.266;2023-05-07T17:20:09;14.12;60.99
75387;DHT22;63966;47.914;22.266;2023-05-07T17:23:13;13.89;61.69
75387;DHT22;63966;47.914;22.266;2023-05-07T17:26:17;13.69;61.52
75387;DHT22;63966;47.914;22.266;2023-05-07T17:29:21;13.37;62.39
75387;DHT22;63966;47.914;22.266;2023-05-07T17:32:24;13.23;62.45
75387;DHT22;63966;47.914;22.266;2023-05-07T17:35:28;13.04;62.58
75387;DHT22;63966;47.914;22.266;2023-05-07T17:38:34;12.85;62.87
75387;DHT22;63966;47.914;22.266;2023-05-07T17:41:38;12.79;62.98
75387;DHT22;63966;47.914;22.266;2023-05-07T17:44:42;12.66;63.02
75387;DHT22;63966;47.914;22.266;2023-05-07T17:47:45;12.69;63.66
75387;DHT22;63966;47.914;22.266;2023-05-07T17:50:49;12.65;64.54
75387;DHT22;63966;47.914;22.266;2023-05-07T17:53:52;12.59;63.80
75387;DHT22;63966;47.914;22.266;2023-05-07T17:56:56;12.46;63.53
75387;DHT22;63966;47.914;22.266;2023-05-07T18:00:00;12.37;64.30
75387;DHT22;63966;47.914;22.266;2023-05-07T18:03:07;12.27;64.56
75387;DHT22;63966;47.914;22.266;2023-05-07T18:06:11;12.18;64.32
75387;DHT22;63966;47.914;22.266;2023-05-07T18:09:20;12.06;64.74
75387;DHT22;63966;47.914;22.266;2023-05-07T18:12:23;11.98;65.09
75387;DHT22;63966;47.914;22.266;2023-05-07T18:15:29;11.89;65.42
75387;DHT22;63966;47.914;22.266;2023-05-07T18:18:33;11.80;65.30
75387;DHT22;63966;47.914;22.266;2023-05-07T18:21:37;11.73;65.81
75387;DHT22;63966;47.914;22.266;2023-05-07T18:24:41;11.72;65.66
75387;DHT22;63966;47.914;22.266;2023-05-07T18:27:44;11.48;66.18
75387;DHT22;63966;47.914;22.266;2023-05-07T18:30:48;11.39;66.29
75387;DHT22;63966;47.914;22.266;2023-05-07T18:33:51;11.27;67.23
75387;DHT22;63966;47.914;22.266;2023-05-07T18:36:56;11.20;67.39
75387;DHT22;63966;47.914;22.266;2023-05-07T18:40:00;10.99;67.92
75387;DHT22;63966;47.914;22.266;2023-05-07T18:43:06;10.84;68.11
75387;DHT22;63966;47.914;22.266;2023-05-07T18:46:09;10.72;68.66
75387;DHT22;63966;47.914;22.266;2023-05-07T18:49:13;10.69;68.54
75387;DHT22;63966;47.914;22.266;2023-05-07T18:52:18;10.63;68.76
75387;DHT22;63966;47.914;22.266;2023-05-07T18:55:25;10.55;69.20
75387;DHT22;63966;47.914;22.266;2023-05-07T18:58:29;10.49;69.44
75387;DHT22;63966;47.914;22.266;2023-05-07T19:01:33;10.42;69.54
75387;DHT22;63966;47.914;22.266;2023-05-07T19:04:37;10.35;69.86
75387;DHT22;63966;47.914;22.266;2023-05-07T19:07:41;10.19;70.24
75387;DHT22;63966;47.914;22.266;2023-05-07T19:10:44;10.12;70.37
75387;DHT22;63966;47.914;22.266;2023-05-07T19:13:48;10.01;71.11
75387;DHT22;63966;47.914;22.266;2023-05-07T19:16:52;9.98;71.00
75387;DHT22;63966;47.914;22.266;2023-05-07T19:19:55;9.90;71.20
75387;DHT22;63966;47.914;22.266;2023-05-07T19:22:59;9.83;71.70
75387;DHT22;63966;47.914;22.266;2023-05-07T19:26:02;9.73;72.00